sensor_id;sensor_type;location;lat;lon;timestamp;P1;durP1;ratioP1;P2;durP2;ratioP2
29700;SDS011;57917;51.380;-0.176;2023-03-05T00:03:03;9.48;;;3.55;;
29700;SDS011;57917;51.380;-0.176;2023-03-05T00:08:50;10.07;;;3.88;;
29700;SDS011;57917;51.380;-0.176;2023-03-05T00:14:44;8.20;;;3.90;;
29700;SDS011;57917;51.380;-0.176;2023-03-05T00:20:56;10.77;;;3.97;;
29700;SDS011;57917;51.380;-0.176;2023-03-05T00:26:43;10.70;;;4.18;;
29700;SDS011;57917;51.380;-0.176;2023-03-05T00:32:31;9.10;;;3.42;;
29700;SDS011;57917;51.380;-0.176;2023-03-05T00:38:18;8.07;;;3.20;;
29700;SDS011;57917;51.380;-0.176;2023-03-05T00:44:05;9.82;;;3.90;;
29700;SDS011;57917;51.380;-0.176;2023-03-05T00:49:55;8.27;;;4.47;;
29700;SDS011;57917;51.380;-0.176;2023-03-05T00:55:42;12.52;;;3.75;;
29700;SDS011;57917;51.380;-0.176;2023-03-05T01:01:31;5.95;;;3.85;;
29700;SDS011;57917;51.380;-0.176;2023-03-05T01:07:18;11.35;;;4.22;;
29700;SDS011;57917;51.380;-0.176;2023-03-05T01:13:05;11.82;;;4.03;;
29700;SDS011;57917;51.380;-0.176;2023-03-05T01:18:52;7.85;;;3.80;;
29700;SDS011;57917;51.380;-0.176;2023-03-05T01:24:40;6.70;;;3.55;;
29700;SDS011;57917;51.380;-0.176;2023-03-05T01:30:27;11.38;;;4.22;;
29700;SDS011;57917;51.380;-0.176;2023-03-05T01:36:14;12.40;;;4.72;;
29700;SDS011;57917;51.380;-0.176;2023-03-05T01:42:02;8.07;;;4.15;;
29700;SDS011;57917;51.380;-0.176;2023-03-05T01:47:50;7.43;;;3.90;;
29700;SDS011;57917;51.380;-0.176;2023-03-05T01:53:37;6.88;;;3.70;;
29700;SDS011;57917;51.380;-0.176;2023-03-05T01:59:24;12.20;;;3.42;;
29700;SDS011;57917;51.380;-0.176;2023-03-05T02:05:14;10.65;;;4.15;;
29700;SDS011;57917;51.380;-0.176;2023-03-05T02:11:04;3.20;;;2.43;;
29700;SDS011;57917;51.380;-0.176;2023-03-05T02:16:51;9.35;;;4.53;;
29700;SDS011;57917;51.380;-0.176;2023-03-05T02:22:38;12.27;;;4.47;;
29700;SDS011;57917;51.380;-0.176;2023-03-05T02:28:27;9.95;;;4.57;;
29700;SDS011;57917;51.380;-0.176;2023-03-05T02:40:04;11.60;;;4.18;;
29700;SDS011;57917;51.380;-0.176;2023-03-05T02:45:52;7.55;;;3.97;;
29700;SDS011;57917;51.380;-0.176;2023-03-05T02:51:39;12.05;;;4.45;;
29700;SDS011;57917;51.380;-0.176;2023-03-05T02:57:27;10.13;;;3.47;;
29700;SDS011;57917;51.380;-0.176;2023-03-05T03:03:14;15.77;;;3.95;;
29700;SDS011;57917;51.380;-0.176;2023-03-05T03:09:05;14.38;;;3.53;;
29700;SDS011;57917;51.380;-0.176;2023-03-05T03:14:52;6.05;;;3.80;;
29700;SDS011;57917;51.380;-0.176;2023-03-05T03:20:39;6.78;;;3.55;;
29700;SDS011;57917;51.380;-0.176;2023-03-05T03:26:25;11.00;;;4.03;;
29700;SDS011;57917;51.380;-0.176;2023-03-05T03:32:12;15.38;;;4.45;;
29700;SDS011;57917;51.380;-0.176;2023-03-05T03:37:59;12.93;;;4.28;;
29700;SDS011;57917;51.380;-0.176;2023-03-05T03:43:46;11.95;;;4.22;;
29700;SDS011;57917;51.380;-0.176;2023-03-05T03:49:33;11.30;;;4.00;;
29700;SDS011;57917;51.380;-0.176;2023-03-05T03:55:19;11.30;;;4.10;;
29700;SDS011;57917;51.380;-0.176;2023-03-05T04:01:06;10.15;;;4.07;;
29700;SDS011;57917;51.380;-0.176;2023-03-05T04:06:53;11.23;;;3.88;;
29700;SDS011;57917;51.380;-0.176;2023-03-05T04:12:40;8.68;;;4.10;;
29700;SDS011;57917;51.380;-0.176;2023-03-05T04:18:28;12.50;;;5.07;;
29700;SDS011;57917;51.380;-0.176;2023-03-05T04:24:17;10.25;;;4.05;;
29700;SDS011;57917;51.380;-0.176;2023-03-05T04:30:05;8.13;;;4.82;;
29700;SDS011;57917;51.380;-0.176;2023-03-05T04:35:52;11.30;;;4.35;;
29700;SDS011;57917;51.380;-0.176;2023-03-05T04:41:39;12.27;;;5.22;;
29700;SDS011;57917;51.380;-0.176;2023-03-05T04:47:26;11.93;;;4.80;;
29700;SDS011;57917;51.380;-0.176;2023-03-05T04:53:13;9.15;;;4.63;;
29700;SDS011;57917;51.380;-0.176;2023-03-05T04:59:00;10.38;;;4.88;;
29700;SDS011;57917;51.380;-0.176;2023-03-05T05:04:47;10.43;;;4.85;;
29700;SDS011;57917;51.380;-0.176;2023-03-05T05:10:37;15.75;;;4.95;;
29700;SDS011;57917;51.380;-0.176;2023-03-05T05:16:25;10.68;;;5.28;;
29700;SDS011;57917;51.380;-0.176;2023-03-05T05:22:12;9.07;;;4.45;;
29700;SDS011;57917;51.380;-0.176;2023-03-05T05:27:59;13.80;;;5.07;;
29700;SDS011;57917;51.380;-0.176;2023-03-05T05:33:46;10.88;;;4.72;;
29700;SDS011;57917;51.380;-0.176;2023-03-05T05:39:35;15.40;;;4.88;;
29700;SDS011;57917;51.380;-0.176;2023-03-05T05:45:22;14.48;;;4.78;;
29700;SDS011;57917;51.380;-0.176;2023-03-05T05:51:11;8.65;;;4.75;;
29700;SDS011;57917;51.380;-0.176;2023-03-05T05:57:00;13.10;;;5.10;;
29700;SDS011;57917;51.380;-0.176;2023-03-05T06:02:47;8.98;;;5.07;;
29700;SDS011;57917;51.380;-0.176;2023-03-05T06:08:34;8.98;;;4.38;;
29700;SDS011;57917;51.380;-0.176;2023-03-05T06:14:21;8.05;;;5.03;;
29700;SDS011;57917;51.380;-0.176;2023-03-05T06:20:08;8.20;;;4.50;;
29700;SDS011;57917;51.380;-0.176;2023-03-05T06:25:57;11.30;;;4.35;;
29700;SDS011;57917;51.380;-0.176;2023-03-05T06:31:45;9.32;;;4.65;;
29700;SDS011;57917;51.380;-0.176;2023-03-05T06:37:32;10.88;;;4.85;;
29700;SDS011;57917;51.380;-0.176;2023-03-05T06:43:22;13.45;;;4.70;;
29700;SDS011;57917;51.380;-0.176;2023-03-05T06:49:09;10.07;;;4.47;;
29700;SDS011;57917;51.380;-0.176;2023-03-05T06:54:57;11.38;;;4.32;;
29700;SDS011;57917;51.380;-0.176;2023-03-05T07:00:43;10.07;;;5.07;;
29700;SDS011;57917;51.380;-0.176;2023-03-05T07:06:31;10.75;;;5.05;;
29700;SDS011;57917;51.380;-0.176;2023-03-05T07:12:20;12.43;;;5.70;;
29700;SDS011;57917;51.380;-0.176;2023-03-05T07:18:16;11.00;;;5.22;;
29700;SDS011;57917;51.380;-0.176;2023-03-05T07:24:06;10.27;;;5.32;;
29700;SDS011;57917;51.380;-0.176;2023-03-05T07:29:53;10.25;;;4.55;;
29700;SDS011;57917;51.380;-0.176;2023-03-05T07:35:40;8.25;;;5.15;;
29700;SDS011;57917;51.380;-0.176;2023-03-05T07:41:50;16.40;;;5.20;;
29700;SDS011;57917;51.380;-0.176;2023-03-05T07:47:46;12.35;;;4.82;;
29700;SDS011;57917;51.380;-0.176;2023-03-05T07:53:33;12.43;;;5.90;;
29700;SDS011;57917;51.380;-0.176;2023-03-05T07:59:20;8.95;;;5.25;;
29700;SDS011;57917;51.380;-0.176;2023-03-05T08:05:07;13.52;;;5.82;;
29700;SDS011;57917;51.380;-0.176;2023-03-05T08:10:57;19.38;;;6.13;;
29700;SDS011;57917;51.380;-0.176;2023-03-05T08:22:54;18.15;;;5.60;;
29700;SDS011;57917;51.380;-0.176;2023-03-05T08:28:41;25.40;;;6.13;;
29700;SDS011;57917;51.380;-0.176;2023-03-05T08:34:28;13.50;;;5.57;;
29700;SDS011;57917;51.380;-0.176;2023-03-05T08:40:15;12.85;;;5.90;;
29700;SDS011;57917;51.380;-0.176;2023-03-05T08:46:03;16.50;;;7.15;;
29700;SDS011;57917;51.380;-0.176;2023-03-05T08:51:51;12.48;;;5.88;;
29700;SDS011;57917;51.380;-0.176;2023-03-05T08:57:38;18.90;;;6.45;;
29700;SDS011;57917;51.380;-0.176;2023-03-05T09:03:25;11.55;;;5.75;;
29700;SDS011;57917;51.380;-0.176;2023-03-05T09:09:12;12.35;;;6.95;;
29700;SDS011;57917;51.380;-0.176;2023-03-05T09:15:05;12.82;;;5.72;;
29700;SDS011;57917;51.380;-0.176;2023-03-05T09:20:53;23.67;;;6.72;;
29700;SDS011;57917;51.380;-0.176;2023-03-05T09:26:40;13.75;;;6.43;;
29700;SDS011;57917;51.380;-0.176;2023-03-05T09:32:27;14.50;;;7.70;;
29700;SDS011;57917;51.380;-0.176;2023-03-05T09:38:15;17.33;;;7.05;;
29700;SDS011;57917;51.380;-0.176;2023-03-05T09:44:21;16.85;;;7.85;;
29700;SDS011;57917;51.380;-0.176;2023-03-05T09:56:31;18.40;;;7.82;;
29700;SDS011;57917;51.380;-0.176;2023-03-05T10:02:27;17.52;;;7.75;;
29700;SDS011;57917;51.380;-0.176;2023-03-05T10:08:20;20.80;;;8.02;;
29700;SDS011;57917;51.380;-0.176;2023-03-05T10:14:11;19.60;;;7.88;;
29700;SDS011;57917;51.380;-0.176;2023-03-05T10:44:33;20.65;;;9.52;;
29700;SDS011;57917;51.380;-0.176;2023-03-05T10:50:27;21.30;;;9.13;;
29700;SDS011;57917;51.380;-0.176;2023-03-05T10:56:20;19.98;;;8.65;;
29700;SDS011;57917;51.380;-0.176;2023-03-05T11:02:11;22.30;;;9.63;;
29700;SDS011;57917;51.380;-0.176;2023-03-05T11:07:58;24.20;;;9.60;;
29700;SDS011;57917;51.380;-0.176;2023-03-05T11:19:46;27.98;;;12.05;;
29700;SDS011;57917;51.380;-0.176;2023-03-05T11:25:33;27.92;;;11.32;;
29700;SDS011;57917;51.380;-0.176;2023-03-05T11:31:33;22.35;;;9.90;;
29700;SDS011;57917;51.380;-0.176;2023-03-05T11:37:24;28.75;;;10.38;;
29700;SDS011;57917;51.380;-0.176;2023-03-05T11:43:18;23.15;;;10.55;;
29700;SDS011;57917;51.380;-0.176;2023-03-05T11:49:09;15.38;;;8.60;;
29700;SDS011;57917;51.380;-0.176;2023-03-05T12:01:20;23.63;;;10.52;;
29700;SDS011;57917;51.380;-0.176;2023-03-05T12:07:11;24.00;;;9.20;;
29700;SDS011;57917;51.380;-0.176;2023-03-05T12:31:36;18.17;;;7.55;;
29700;SDS011;57917;51.380;-0.176;2023-03-05T13:07:15;15.82;;;6.88;;
29700;SDS011;57917;51.380;-0.176;2023-03-05T13:13:03;13.35;;;5.57;;
29700;SDS011;57917;51.380;-0.176;2023-03-05T13:18:51;11.07;;;5.35;;
29700;SDS011;57917;51.380;-0.176;2023-03-05T13:24:39;15.07;;;5.95;;
29700;SDS011;57917;51.380;-0.176;2023-03-05T13:30:26;15.35;;;5.40;;
29700;SDS011;57917;51.380;-0.176;2023-03-05T13:36:14;11.93;;;5.45;;
29700;SDS011;57917;51.380;-0.176;2023-03-05T13:42:16;10.65;;;5.25;;
29700;SDS011;57917;51.380;-0.176;2023-03-05T13:48:17;9.65;;;5.05;;
29700;SDS011;57917;51.380;-0.176;2023-03-05T13:54:05;17.70;;;5.85;;
29700;SDS011;57917;51.380;-0.176;2023-03-05T13:59:56;11.38;;;5.53;;
29700;SDS011;57917;51.380;-0.176;2023-03-05T14:05:43;18.33;;;5.57;;
29700;SDS011;57917;51.380;-0.176;2023-03-05T14:11:31;16.70;;;6.60;;
29700;SDS011;57917;51.380;-0.176;2023-03-05T14:29:33;16.02;;;5.03;;
29700;SDS011;57917;51.380;-0.176;2023-03-05T14:35:24;10.70;;;4.38;;
29700;SDS011;57917;51.380;-0.176;2023-03-05T14:47:20;9.48;;;5.40;;
29700;SDS011;57917;51.380;-0.176;2023-03-05T14:53:15;13.38;;;5.05;;
29700;SDS011;57917;51.380;-0.176;2023-03-05T14:59:07;9.23;;;5.00;;
29700;SDS011;57917;51.380;-0.176;2023-03-05T15:04:55;9.82;;;5.72;;
29700;SDS011;57917;51.380;-0.176;2023-03-05T15:10:42;12.80;;;6.15;;
29700;SDS011;57917;51.380;-0.176;2023-03-05T15:16:28;9.68;;;5.00;;
29700;SDS011;57917;51.380;-0.176;2023-03-05T15:22:17;8.32;;;4.32;;
29700;SDS011;57917;51.380;-0.176;2023-03-05T15:28:04;11.63;;;4.85;;
29700;SDS011;57917;51.380;-0.176;2023-03-05T15:33:51;10.52;;;5.15;;
29700;SDS011;57917;51.380;-0.176;2023-03-05T15:39:38;9.57;;;5.35;;
29700;SDS011;57917;51.380;-0.176;2023-03-05T15:45:25;8.75;;;3.83;;
29700;SDS011;57917;51.380;-0.176;2023-03-05T15:51:12;10.30;;;4.13;;
29700;SDS011;57917;51.380;-0.176;2023-03-05T15:56:59;8.85;;;4.00;;
29700;SDS011;57917;51.380;-0.176;2023-03-05T16:02:46;12.55;;;4.90;;
29700;SDS011;57917;51.380;-0.176;2023-03-05T16:08:33;10.13;;;5.10;;
29700;SDS011;57917;51.380;-0.176;2023-03-05T16:14:23;6.57;;;3.78;;
29700;SDS011;57917;51.380;-0.176;2023-03-05T16:20:12;9.93;;;4.57;;
29700;SDS011;57917;51.380;-0.176;2023-03-05T16:25:59;8.13;;;4.50;;
29700;SDS011;57917;51.380;-0.176;2023-03-05T16:31:46;9.88;;;3.85;;
29700;SDS011;57917;51.380;-0.176;2023-03-05T16:37:33;10.43;;;3.75;;
29700;SDS011;57917;51.380;-0.176;2023-03-05T16:43:21;7.78;;;3.55;;
29700;SDS011;57917;51.380;-0.176;2023-03-05T16:49:09;9.05;;;2.95;;
29700;SDS011;57917;51.380;-0.176;2023-03-05T16:54:56;3.20;;;2.28;;
29700;SDS011;57917;51.380;-0.176;2023-03-05T17:00:43;9.23;;;3.65;;
29700;SDS011;57917;51.380;-0.176;2023-03-05T17:06:31;6.43;;;2.30;;
29700;SDS011;57917;51.380;-0.176;2023-03-05T17:12:20;3.42;;;2.20;;
29700;SDS011;57917;51.380;-0.176;2023-03-05T17:18:07;4.32;;;2.47;;
29700;SDS011;57917;51.380;-0.176;2023-03-05T17:23:55;8.90;;;2.65;;
29700;SDS011;57917;51.380;-0.176;2023-03-05T17:29:42;12.27;;;3.55;;
29700;SDS011;57917;51.380;-0.176;2023-03-05T17:35:29;15.38;;;5.65;;
29700;SDS011;57917;51.380;-0.176;2023-03-05T17:41:16;16.98;;;5.93;;
29700;SDS011;57917;51.380;-0.176;2023-03-05T17:47:05;4.60;;;2.63;;
29700;SDS011;57917;51.380;-0.176;2023-03-05T17:52:52;5.18;;;2.97;;
29700;SDS011;57917;51.380;-0.176;2023-03-05T17:58:39;5.78;;;2.95;;
29700;SDS011;57917;51.380;-0.176;2023-03-05T18:04:31;7.68;;;3.63;;
29700;SDS011;57917;51.380;-0.176;2023-03-05T18:10:20;5.57;;;2.63;;
29700;SDS011;57917;51.380;-0.176;2023-03-05T18:16:12;4.97;;;2.85;;
29700;SDS011;57917;51.380;-0.176;2023-03-05T18:22:02;5.00;;;2.45;;
29700;SDS011;57917;51.380;-0.176;2023-03-05T18:27:50;9.23;;;2.72;;
29700;SDS011;57917;51.380;-0.176;2023-03-05T18:33:38;6.40;;;3.08;;
29700;SDS011;57917;51.380;-0.176;2023-03-05T18:39:25;3.83;;;2.58;;
29700;SDS011;57917;51.380;-0.176;2023-03-05T18:45:15;10.55;;;4.35;;
29700;SDS011;57917;51.380;-0.176;2023-03-05T18:51:05;7.88;;;2.75;;
29700;SDS011;57917;51.380;-0.176;2023-03-05T18:57:11;8.82;;;3.90;;
29700;SDS011;57917;51.380;-0.176;2023-03-05T19:03:12;13.23;;;4.28;;
29700;SDS011;57917;51.380;-0.176;2023-03-05T19:09:00;13.40;;;4.38;;
29700;SDS011;57917;51.380;-0.176;2023-03-05T19:15:16;23.95;;;8.18;;
29700;SDS011;57917;51.380;-0.176;2023-03-05T19:21:04;12.52;;;5.22;;
29700;SDS011;57917;51.380;-0.176;2023-03-05T19:26:55;12.90;;;4.68;;
29700;SDS011;57917;51.380;-0.176;2023-03-05T19:33:10;11.05;;;4.05;;
29700;SDS011;57917;51.380;-0.176;2023-03-05T19:39:22;7.35;;;3.08;;
29700;SDS011;57917;51.380;-0.176;2023-03-05T19:46:20;5.32;;;3.00;;
29700;SDS011;57917;51.380;-0.176;2023-03-05T19:52:54;12.95;;;3.83;;
29700;SDS011;57917;51.380;-0.176;2023-03-05T19:58:49;7.53;;;3.55;;
29700;SDS011;57917;51.380;-0.176;2023-03-05T20:04:38;5.70;;;2.88;;
29700;SDS011;57917;51.380;-0.176;2023-03-05T20:10:32;7.32;;;3.80;;
29700;SDS011;57917;51.380;-0.176;2023-03-05T20:16:25;10.23;;;4.15;;
29700;SDS011;57917;51.380;-0.176;2023-03-05T20:22:19;12.43;;;6.00;;
29700;SDS011;57917;51.380;-0.176;2023-03-05T20:28:08;13.70;;;5.75;;
29700;SDS011;57917;51.380;-0.176;2023-03-05T20:33:57;8.57;;;3.95;;
29700;SDS011;57917;51.380;-0.176;2023-03-05T20:39:47;14.50;;;5.30;;
29700;SDS011;57917;51.380;-0.176;2023-03-05T20:45:36;9.25;;;4.70;;
29700;SDS011;57917;51.380;-0.176;2023-03-05T20:51:29;18.02;;;6.45;;
29700;SDS011;57917;51.380;-0.176;2023-03-05T20:57:21;20.33;;;8.27;;
29700;SDS011;57917;51.380;-0.176;2023-03-05T21:03:08;7.82;;;4.50;;
29700;SDS011;57917;51.380;-0.176;2023-03-05T21:08:56;10.05;;;4.47;;
29700;SDS011;57917;51.380;-0.176;2023-03-05T21:14:44;11.45;;;4.40;;
29700;SDS011;57917;51.380;-0.176;2023-03-05T21:27:41;12.50;;;4.00;;
29700;SDS011;57917;51.380;-0.176;2023-03-05T21:33:28;8.95;;;3.70;;
29700;SDS011;57917;51.380;-0.176;2023-03-05T21:39:15;8.77;;;3.90;;
29700;SDS011;57917;51.380;-0.176;2023-03-05T21:45:02;11.52;;;4.13;;
29700;SDS011;57917;51.380;-0.176;2023-03-05T21:50:51;14.30;;;4.63;;
29700;SDS011;57917;51.380;-0.176;2023-03-05T21:56:41;7.82;;;4.00;;
29700;SDS011;57917;51.380;-0.176;2023-03-05T22:02:28;7.60;;;4.28;;
29700;SDS011;57917;51.380;-0.176;2023-03-05T22:08:15;11.48;;;3.88;;
29700;SDS011;57917;51.380;-0.176;2023-03-05T22:14:02;7.93;;;4.38;;
29700;SDS011;57917;51.380;-0.176;2023-03-05T22:19:48;17.88;;;5.50;;
29700;SDS011;57917;51.380;-0.176;2023-03-05T22:25:36;15.25;;;4.97;;
29700;SDS011;57917;51.380;-0.176;2023-03-05T22:31:24;10.25;;;4.35;;
29700;SDS011;57917;51.380;-0.176;2023-03-05T22:43:02;11.07;;;4.18;;
29700;SDS011;57917;51.380;-0.176;2023-03-05T22:48:50;7.10;;;3.95;;
29700;SDS011;57917;51.380;-0.176;2023-03-05T22:54:55;10.45;;;3.58;;
29700;SDS011;57917;51.380;-0.176;2023-03-05T23:00:51;5.93;;;3.78;;
29700;SDS011;57917;51.380;-0.176;2023-03-05T23:07:33;7.57;;;3.95;;
29700;SDS011;57917;51.380;-0.176;2023-03-05T23:13:43;10.40;;;5.05;;
29700;SDS011;57917;51.380;-0.176;2023-03-05T23:19:33;7.55;;;4.20;;
29700;SDS011;57917;51.380;-0.176;2023-03-05T23:25:27;8.77;;;4.22;;
29700;SDS011;57917;51.380;-0.176;2023-03-05T23:32:29;15.40;;;5.05;;
29700;SDS011;57917;51.380;-0.176;2023-03-05T23:45:28;11.52;;;4.57;;
29700;SDS011;57917;51.380;-0.176;2023-03-05T23:57:43;10.32;;;4.80;;
